Map

Track Data

SID SEASON NUMBER BASIN SUBBASIN NAME ISO_TIME NATURE LAT LON WMO_WIND WMO_PRES WMO_AGENCY TRACK_TYPE DIST2LAND LANDFALL IFLAG USA_AGENCY USA_ATCF_ID USA_LAT USA_LON USA_RECORD USA_STATUS USA_WIND USA_PRES USA_SSHS USA_R34_NE USA_R34_SE USA_R34_SW USA_R34_NW USA_R50_NE USA_R50_SE USA_R50_SW USA_R50_NW USA_R64_NE USA_R64_SE USA_R64_SW USA_R64_NW USA_POCI USA_ROCI USA_RMW USA_EYE TOKYO_LAT TOKYO_LON TOKYO_GRADE TOKYO_WIND TOKYO_PRES TOKYO_R50_DIR TOKYO_R50_LONG TOKYO_R50_SHORT TOKYO_R30_DIR TOKYO_R30_LONG TOKYO_R30_SHORT TOKYO_LAND CMA_LAT CMA_LON CMA_CAT CMA_WIND CMA_PRES HKO_LAT HKO_LON HKO_CAT HKO_WIND HKO_PRES NEWDELHI_LAT NEWDELHI_LON NEWDELHI_GRADE NEWDELHI_WIND NEWDELHI_PRES NEWDELHI_CI NEWDELHI_DP NEWDELHI_POCI REUNION_LAT REUNION_LON REUNION_TYPE REUNION_WIND REUNION_PRES REUNION_TNUM REUNION_CI REUNION_RMW REUNION_R34_NE REUNION_R34_SE REUNION_R34_SW REUNION_R34_NW REUNION_R50_NE REUNION_R50_SE REUNION_R50_SW REUNION_R50_NW REUNION_R64_NE REUNION_R64_SE REUNION_R64_SW REUNION_R64_NW BOM_LAT BOM_LON BOM_TYPE BOM_WIND BOM_PRES BOM_TNUM BOM_CI BOM_RMW BOM_R34_NE BOM_R34_SE BOM_R34_SW BOM_R34_NW BOM_R50_NE BOM_R50_SE BOM_R50_SW BOM_R50_NW BOM_R64_NE BOM_R64_SE BOM_R64_SW BOM_R64_NW BOM_ROCI BOM_POCI BOM_EYE BOM_POS_METHOD BOM_PRES_METHOD NADI_LAT NADI_LON NADI_CAT NADI_WIND NADI_PRES WELLINGTON_LAT WELLINGTON_LON WELLINGTON_WIND WELLINGTON_PRES DS824_LAT DS824_LON DS824_STAGE DS824_WIND DS824_PRES TD9636_LAT TD9636_LON TD9636_STAGE TD9636_WIND TD9636_PRES TD9635_LAT TD9635_LON TD9635_WIND TD9635_PRES TD9635_ROCI NEUMANN_LAT NEUMANN_LON NEUMANN_CLASS NEUMANN_WIND NEUMANN_PRES MLC_LAT MLC_LON MLC_CLASS MLC_WIND MLC_PRES USA_GUST BOM_GUST BOM_GUST_PER REUNION_GUST REUNION_GUST_PER USA_SEAHGT USA_SEARAD_NE USA_SEARAD_SE USA_SEARAD_SW USA_SEARAD_NW STORM_SPEED STORM_DIR
1897345S11062 1898 50 SI MM NOT_NAMED 1897-12-11 00:00:00 TS -11.0000 61.7000 main 1104 1064 _________O____ -1 -11.0000 61.7000 TC 12 246
1897345S11062 1898 50 SI MM NOT_NAMED 1897-12-11 03:00:00 TS -11.2402 61.1402 main 1060 1011 _________P____ -1 -11.2402 61.1402 TC 12 245
1897345S11062 1898 50 SI MM NOT_NAMED 1897-12-11 06:00:00 TS -11.5000 60.6000 main 1011 963 _________O____ -1 -11.5000 60.6000 TC 12 242
1897345S11062 1898 50 SI MM NOT_NAMED 1897-12-11 09:00:00 TS -11.7924 60.0924 main 963 918 _________P____ -1 -11.7924 60.0924 TC 12 238
1897345S11062 1898 50 SI MM NOT_NAMED 1897-12-11 12:00:00 TS -12.1000 59.6000 main 918 874 _________O____ -1 -12.1000 59.6000 TC 12 238
1897345S11062 1898 50 SI MM NOT_NAMED 1897-12-11 15:00:00 TS -12.3999 59.0924 main 874 833 _________P____ -1 -12.3999 59.0924 TC 11 238
1897345S11062 1898 50 SI MM NOT_NAMED 1897-12-11 18:00:00 TS -12.7000 58.6000 main 833 796 _________O____ -1 -12.7000 58.6000 TC 11 237
1897345S11062 1898 50 SI MM NOT_NAMED 1897-12-11 21:00:00 TS -12.9999 58.1424 main 795 760 _________P____ -1 -12.9999 58.1424 TC 11 236
1897345S11062 1898 50 SI MM NOT_NAMED 1897-12-12 00:00:00 TS -13.3000 57.7000 main 760 727 _________O____ -1 -13.3000 57.7000 TC 11 236
1897345S11062 1898 50 SI MM NOT_NAMED 1897-12-12 03:00:00 TS -13.5925 57.2424 main 728 693 _________P____ -1 -13.5925 57.2424 TC 11 236
1897345S11062 1898 50 SI MM NOT_NAMED 1897-12-12 06:00:00 TS -13.9000 56.8000 main 693 644 _________O____ -1 -13.9000 56.8000 TC 10 231
1897345S11062 1898 50 SI MM NOT_NAMED 1897-12-12 09:00:00 TS -14.2498 56.4074 main 644 595 _________P____ -1 -14.2498 56.4074 TC 10 228
1897345S11062 1898 50 SI MM NOT_NAMED 1897-12-12 12:00:00 TS -14.6000 56.0000 main 595 538 _________O____ -1 -14.6000 56.0000 TC 11 233
1897345S11062 1898 50 SI MM NOT_NAMED 1897-12-12 15:00:00 TS -14.9000 55.5074 main 538 483 _________P____ -1 -14.9000 55.5074 TC 11 238
1897345S11062 1898 50 SI MM NOT_NAMED 1897-12-12 18:00:00 TS -15.2000 55.0000 main 483 439 _________O____ -1 -15.2000 55.0000 TC 12 235
1897345S11062 1898 50 SI MM NOT_NAMED 1897-12-12 21:00:00 TS -15.5574 54.5275 main 429 389 _________P____ -1 -15.5574 54.5275 TC 11 231
1897345S11062 1898 50 SI MM NOT_NAMED 1897-12-13 00:00:00 TS -15.9000 54.1000 main 389 361 _________O____ -1 -15.9000 54.1000 TC 10 232
1897345S11062 1898 50 SI MM NOT_NAMED 1897-12-13 03:00:00 TS -16.1574 53.7347 main 354 329 _________P____ -1 -16.1574 53.7347 TC 8 233
1897345S11062 1898 50 SI MM NOT_NAMED 1897-12-13 06:00:00 TS -16.4000 53.4000 main 329 308 _________O____ -1 -16.4000 53.4000 TC 9 230
1897345S11062 1898 50 SI MM NOT_NAMED 1897-12-13 09:00:00 TS -16.6999 53.0500 main 303 289 _________P____ -1 -16.6999 53.0500 TC 9 228
1897345S11062 1898 50 SI MM NOT_NAMED 1897-12-13 12:00:00 TS -17.0000 52.7000 main 289 270 _________O____ -1 -17.0000 52.7000 TC 9 231
1897345S11062 1898 50 SI MM NOT_NAMED 1897-12-13 15:00:00 TS -17.2499 52.3498 main 261 246 _________P____ -1 -17.2499 52.3498 TC 8 233
1897345S11062 1898 50 SI MM NOT_NAMED 1897-12-13 18:00:00 TS -17.5000 52.0000 main 246 225 _________O____ -1 -17.5000 52.0000 TC 9 231
1897345S11062 1898 50 SI MM NOT_NAMED 1897-12-13 21:00:00 TS -17.7924 51.6499 main 221 195 _________P____ -1 -17.7924 51.6499 TC 9 228
1897345S11062 1898 50 SI MM NOT_NAMED 1897-12-14 00:00:00 TS -18.1000 51.3000 main 195 159 _________O____ -1 -18.1000 51.3000 TC 9 230
1897345S11062 1898 50 SI MM NOT_NAMED 1897-12-14 03:00:00 TS -18.3851 50.9200 main 159 134 _________P____ -1 -18.3851 50.9200 TC 9 228
1897345S11062 1898 50 SI MM NOT_NAMED 1897-12-14 06:00:00 TS -18.7000 50.6000 main 138 128 _________O____ -1 -18.7000 50.6000 TC 9 216
1897345S11062 1898 50 SI MM NOT_NAMED 1897-12-14 09:00:00 TS -19.0849 50.3826 main 133 128 _________P____ -1 -19.0849 50.3826 TC 9 199
1897345S11062 1898 50 SI MM NOT_NAMED 1897-12-14 12:00:00 TS -19.5000 50.3000 main 137 137 _________O____ -1 -19.5000 50.3000 TC 8 0
1897345S11062 1898 50 SI MM NOT_NAMED 1897-12-14 15:00:00 TS -19.9075 50.3548 main 166 166 _________P____ -1 -19.9075 50.3548 TC 8 167
1897345S11062 1898 50 SI MM NOT_NAMED 1897-12-14 18:00:00 TS -20.3000 50.5000 main 180 180 _________O____ -1 -20.3000 50.5000 TC 8 161
1897345S11062 1898 50 SI MM NOT_NAMED 1897-12-14 21:00:00 TS -20.6500 50.6351 main 199 199 _________P____ -1 -20.6500 50.6351 TC 8 158
1897345S11062 1898 50 SI MM NOT_NAMED 1897-12-15 00:00:00 TS -21.0000 50.8000 main 236 236 _________O____ -1 -21.0000 50.8000 TC 8 156
1897345S11062 1898 50 SI MM NOT_NAMED 1897-12-15 03:00:00 TS -21.3925 50.9925 main 273 273 _________P____ -1 -21.3925 50.9925 TC 9 155
1897345S11062 1898 50 SI MM NOT_NAMED 1897-12-15 06:00:00 TS -21.8000 51.2000 main 303 303 _________O____ -1 -21.8000 51.2000 TC 9 155
1897345S11062 1898 50 SI MM NOT_NAMED 1897-12-15 09:00:00 TS -22.1924 51.3927 main 332 332 _________P____ -1 -22.1924 51.3927 TC 9 155
1897345S11062 1898 50 SI MM NOT_NAMED 1897-12-15 12:00:00 TS -22.6000 51.6000 main 361 361 _________O____ -1 -22.6000 51.6000 TC 10 154
1897345S11062 1898 50 SI MM NOT_NAMED 1897-12-15 15:00:00 TS -23.0500 51.8351 main 393 393 _________P____ -1 -23.0500 51.8351 TC 10 153
1897345S11062 1898 50 SI MM NOT_NAMED 1897-12-15 18:00:00 TS -23.5000 52.1000 main 410 408 _________O____ -1 -23.5000 52.1000 TC 10 149
1897345S11062 1898 50 SI MM NOT_NAMED 1897-12-15 21:00:00 TS -23.9150 52.3926 main 415 415 _________P____ -1 -23.9150 52.3926 TC 10 146
1897345S11062 1898 50 SI MM NOT_NAMED 1897-12-16 00:00:00 TS -24.3000 52.7000 main 428 428 _________O____ -1 -24.3000 52.7000 TC 9 144
1897345S11062 1898 50 SI MM NOT_NAMED 1897-12-16 03:00:00 TS -24.6574 52.9928 main 446 441 _________P____ -1 -24.6574 52.9928 TC 9 142
1897345S11062 1898 50 SI MM NOT_NAMED 1897-12-16 06:00:00 TS -25.0000 53.3000 main 461 461 _________O____ -1 -25.0000 53.3000 TC 9 139
1897345S11062 1898 50 SI MM NOT_NAMED 1897-12-16 09:00:00 TS -25.3500 53.6501 main 486 486 _________P____ -1 -25.3500 53.6501 TC 9 138
1897345S11062 1898 50 SI MM NOT_NAMED 1897-12-16 12:00:00 TS -25.7000 54.0000 main 507 507 _________O____ -1 -25.7000 54.0000 TC 9 139
1897345S11062 1898 50 SI MM NOT_NAMED 1897-12-16 15:00:00 TS -26.0424 54.3078 main 530 530 _________P____ -1 -26.0424 54.3078 TC 9 142
1897345S11062 1898 50 SI MM NOT_NAMED 1897-12-16 18:00:00 TS -26.4000 54.6000 main 567 567 _________O____ -1 -26.4000 54.6000 TC 8 146
1897345S11062 1898 50 SI MM NOT_NAMED 1897-12-16 21:00:00 TS -26.7393 54.8343 main 597 597 _________P____ -1 -26.7393 54.8343 TC 10 146
1897345S11062 1898 50 SI MM NOT_NAMED 1897-12-17 00:00:00 TS -27.2000 55.2000 main 649 649 _________O____ -1 -27.2000 55.2000 TC 15 142
1897345S11062 1898 50 SI MM NOT_NAMED 1897-12-17 03:00:00 TS -27.9129 55.8740 main 726 726 _________P____ -1 -27.9129 55.8740 TC 20 139
1897345S11062 1898 50 SI MM NOT_NAMED 1897-12-17 06:00:00 TS -28.7000 56.7000 main 823 823 _________O____ -1 -28.7000 56.7000 TC 20 136
1897345S11062 1898 50 SI MM NOT_NAMED 1897-12-17 09:00:00 TS -29.3716 57.4641 main 913 913 _________P____ -1 -29.3716 57.4641 TC 19 133
1897345S11062 1898 50 SI MM NOT_NAMED 1897-12-17 12:00:00 TS -30.0000 58.3000 main 997 997 _________O____ -1 -30.0000 58.3000 TC 20 129
1897345S11062 1898 50 SI MM NOT_NAMED 1897-12-17 15:00:00 TS -30.6443 59.2475 main 1088 1088 _________P____ -1 -30.6443 59.2475 TC 21 125
1897345S11062 1898 50 SI MM NOT_NAMED 1897-12-17 18:00:00 TS -31.2000 60.3000 main 1190 1190 _________O____ -1 -31.2000 60.3000 TC 21 117
1897345S11062 1898 50 SI MM NOT_NAMED 1897-12-17 21:00:00 TS -31.5997 61.4293 main 1276 1276 _________P____ -1 -31.5997 61.4293 TC 21 110
1897345S11062 1898 50 SI MM NOT_NAMED 1897-12-18 00:00:00 TS -31.9000 62.6000 main 1362 _________O____ -1 -31.9000 62.6000 TC 21 107

About IBTrACS Database

This database is a web-friendly format of International Best Track Archive for Climate Stewardship (IBTrACS), a global best track data archive curated by NOAA dating back to 1842.

Updated: 2021-11-26